Proud — 9HWA9 — position and weather

sailwx.info

Track history (hours):
 
Tides and Currents Weather Stations Pressure Air Temp Water Temp Dewpoint Dewpoint Depression Visibility Wind Speed Wind Dir Waves Ship Positions

Proud

Last reported at 2014-Oct-05 13:27 UTC. Time now 2014-Nov-01 11:17 UTC.
Position N 31°16' E 121°51'.
Warning: this ship's position is 26 days out of date.

Length 292 m; draft 9 m.

Type: Cargo ship. MMSI: 249619000.

Date/timePositionNaut miles runAvg speedWind from/ knotsBaromVisibWave heightAir tempDewpointWater temp
2014-Oct-05 13:27N 31°16' E 121°51'1010.8
2014-Oct-05 12:33N 31°20' E 121°41'6 6.2
2014-Oct-05 11:32N 31°23' E 121°34'6 6.6
2014-Oct-05 10:33N 31°27' E 121°28'5 4.9
2014-Oct-05 09:33N 31°30' E 121°23'0 0.0
2014-Oct-05 08:09N 31°30' E 121°23'0 0.0
2014-Oct-05 07:33N 31°30' E 121°23'0 0.0
2014-Oct-05 06:33N 31°30' E 121°23'0 0.0
2014-Oct-05 05:09N 31°30' E 121°23'0 0.0
2014-Oct-05 04:27N 31°30' E 121°23'0 0.0
2014-Oct-05 03:33N 31°30' E 121°23'0 0.0
2014-Oct-05 02:21N 31°30' E 121°23'0 0.0
2014-Oct-05 01:21N 31°30' E 121°23'0 0.0
2014-Oct-05 00:21N 31°30' E 121°23'0 0.0
2014-Oct-04 23:27N 31°30' E 121°23'0 0.0
2014-Oct-04 22:27N 31°30' E 121°23'0 0.0
2014-Oct-04 21:15N 31°30' E 121°23'0 0.0
2014-Oct-04 20:15N 31°30' E 121°23'0 0.0
2014-Oct-04 16:30N 31°30' E 121°23'0 0.0
2014-Oct-04 15:27N 31°30' E 121°23'0 0.0
2014-Oct-04 14:33N 31°30' E 121°23'0 0.0
2014-Oct-04 12:27N 31°30' E 121°23'0 0.0
2014-Oct-04 11:33N 31°30' E 121°23'0 0.0
2014-Oct-04 10:27N 31°30' E 121°23'0 0.0
2014-Oct-04 09:33N 31°30' E 121°23'0 0.0
2014-Oct-04 08:21N 31°30' E 121°23'0 0.1
2014-Oct-04 07:27N 31°30' E 121°23'0 0.0
2014-Oct-04 06:27N 31°30' E 121°23'0 0.0
2014-Oct-04 03:33N 31°30' E 121°23'0 0.0
2014-Oct-04 02:33N 31°30' E 121°23'0 0.0
2014-Oct-04 01:21N 31°30' E 121°23'0 0.0
2014-Oct-04 00:33N 31°30' E 121°23'0 0.0
2014-Oct-03 23:27N 31°30' E 121°23'0 0.0
2014-Oct-03 22:15N 31°30' E 121°23'0 0.0
2014-Oct-03 21:33N 31°30' E 121°23'0 0.0
2014-Oct-03 18:21N 31°30' E 121°23'0 0.0
2014-Oct-03 15:21N 31°30' E 121°23'0 0.0
2014-Oct-03 13:17N 31°30' E 121°23'1 1.5
2014-Oct-03 12:33N 31°29' E 121°24'8 8.4
2014-Oct-03 11:33N 31°24' E 121°32'9 9.2
2014-Oct-03 10:33N 31°20' E 121°42'10 9.9
2014-Oct-03 09:30N 31°16' E 121°53'2310.1
2014-Oct-03 07:15N 31°07' E 122°17'  
2014-Sep-28 13:20N 31°09' E 122°44'  
Track history (hours):
 
Tides and Currents Weather Stations Pressure Air Temp Water Temp Dewpoint Dewpoint Depression Visibility Wind Speed Wind Dir Waves Ship Positions

Proud

Last reported at 2014-Oct-05 13:27 UTC. Time now 2014-Nov-01 11:17 UTC.
Position N 31°16' E 121°51'.
Warning: this ship's position is 26 days out of date.

Length 292 m; draft 9 m.

Type: Cargo ship. MMSI: 249619000.

Date/timePositionNaut miles runAvg speedWind from/ knotsBaromVisibWave heightAir tempDewpointWater temp
2014-Oct-05 13:27N 31°16' E 121°51'1010.8
2014-Oct-05 12:33N 31°20' E 121°41'6 6.2
2014-Oct-05 11:32N 31°23' E 121°34'6 6.6
2014-Oct-05 10:33N 31°27' E 121°28'5 4.9
2014-Oct-05 09:33N 31°30' E 121°23'0 0.0
2014-Oct-05 08:09N 31°30' E 121°23'0 0.0
2014-Oct-05 07:33N 31°30' E 121°23'0 0.0
2014-Oct-05 06:33N 31°30' E 121°23'0 0.0
2014-Oct-05 05:09N 31°30' E 121°23'0 0.0
2014-Oct-05 04:27N 31°30' E 121°23'0 0.0
2014-Oct-05 03:33N 31°30' E 121°23'0 0.0
2014-Oct-05 02:21N 31°30' E 121°23'0 0.0
2014-Oct-05 01:21N 31°30' E 121°23'0 0.0
2014-Oct-05 00:21N 31°30' E 121°23'0 0.0
2014-Oct-04 23:27N 31°30' E 121°23'0 0.0
2014-Oct-04 22:27N 31°30' E 121°23'0 0.0
2014-Oct-04 21:15N 31°30' E 121°23'0 0.0
2014-Oct-04 20:15N 31°30' E 121°23'0 0.0
2014-Oct-04 16:30N 31°30' E 121°23'0 0.0
2014-Oct-04 15:27N 31°30' E 121°23'0 0.0
2014-Oct-04 14:33N 31°30' E 121°23'0 0.0
2014-Oct-04 12:27N 31°30' E 121°23'0 0.0
2014-Oct-04 11:33N 31°30' E 121°23'0 0.0
2014-Oct-04 10:27N 31°30' E 121°23'0 0.0
2014-Oct-04 09:33N 31°30' E 121°23'0 0.0
2014-Oct-04 08:21N 31°30' E 121°23'0 0.1
2014-Oct-04 07:27N 31°30' E 121°23'0 0.0
2014-Oct-04 06:27N 31°30' E 121°23'0 0.0
2014-Oct-04 03:33N 31°30' E 121°23'0 0.0
2014-Oct-04 02:33N 31°30' E 121°23'0 0.0
2014-Oct-04 01:21N 31°30' E 121°23'0 0.0
2014-Oct-04 00:33N 31°30' E 121°23'0 0.0
2014-Oct-03 23:27N 31°30' E 121°23'0 0.0
2014-Oct-03 22:15N 31°30' E 121°23'0 0.0
2014-Oct-03 21:33N 31°30' E 121°23'0 0.0
2014-Oct-03 18:21N 31°30' E 121°23'0 0.0
2014-Oct-03 15:21N 31°30' E 121°23'0 0.0
2014-Oct-03 13:17N 31°30' E 121°23'1 1.5
2014-Oct-03 12:33N 31°29' E 121°24'8 8.4
2014-Oct-03 11:33N 31°24' E 121°32'9 9.2
2014-Oct-03 10:33N 31°20' E 121°42'10 9.9
2014-Oct-03 09:30N 31°16' E 121°53'2310.1
2014-Oct-03 07:15N 31°07' E 122°17'  
2014-Sep-28 13:20N 31°09' E 122°44'  

Dump ship's entire track history